sensor_id;sensor_type;location;lat;lon;timestamp;pressure;altitude;pressure_sealevel;temperature;humidity
56402;BME280;42299;35.160;26.100;2023-12-20T00:05:20;101664.41;;;11.43;100.00
56402;BME280;42299;35.160;26.100;2023-12-20T00:10:44;101669.22;;;11.25;100.00
56402;BME280;42299;35.160;26.100;2023-12-20T00:16:09;101658.31;;;11.12;100.00
56402;BME280;42299;35.160;26.100;2023-12-20T00:21:35;101659.59;;;10.95;100.00
56402;BME280;42299;35.160;26.100;2023-12-20T00:26:59;101657.47;;;10.82;100.00
56402;BME280;42299;35.160;26.100;2023-12-20T00:32:22;101640.78;;;10.85;100.00
56402;BME280;42299;35.160;26.100;2023-12-20T00:37:48;101637.66;;;10.68;100.00
56402;BME280;42299;35.160;26.100;2023-12-20T00:43:12;101615.59;;;10.66;100.00
56402;BME280;42299;35.160;26.100;2023-12-20T00:48:35;101601.72;;;10.73;100.00
56402;BME280;42299;35.160;26.100;2023-12-20T00:53:59;101597.09;;;10.66;100.00
56402;BME280;42299;35.160;26.100;2023-12-20T00:59:21;101592.00;;;10.72;100.00
56402;BME280;42299;35.160;26.100;2023-12-20T01:04:43;101584.97;;;10.72;100.00
56402;BME280;42299;35.160;26.100;2023-12-20T01:10:08;101579.97;;;10.82;100.00
56402;BME280;42299;35.160;26.100;2023-12-20T01:15:30;101582.53;;;11.11;100.00
56402;BME280;42299;35.160;26.100;2023-12-20T01:20:53;101581.59;;;11.44;100.00
56402;BME280;42299;35.160;26.100;2023-12-20T01:26:17;101583.50;;;11.48;100.00
56402;BME280;42299;35.160;26.100;2023-12-20T01:31:39;101586.34;;;11.57;100.00
56402;BME280;42299;35.160;26.100;2023-12-20T01:37:01;101565.28;;;11.60;100.00
56402;BME280;42299;35.160;26.100;2023-12-20T01:42:26;101559.94;;;11.58;100.00
56402;BME280;42299;35.160;26.100;2023-12-20T01:47:48;101539.72;;;11.61;100.00
56402;BME280;42299;35.160;26.100;2023-12-20T01:53:12;101518.66;;;11.65;100.00
56402;BME280;42299;35.160;26.100;2023-12-20T01:58:37;101517.97;;;11.36;100.00
56402;BME280;42299;35.160;26.100;2023-12-20T02:04:02;101510.47;;;11.18;100.00
56402;BME280;42299;35.160;26.100;2023-12-20T02:09:24;101508.31;;;11.02;100.00
56402;BME280;42299;35.160;26.100;2023-12-20T02:14:48;101495.13;;;10.69;100.00
56402;BME280;42299;35.160;26.100;2023-12-20T02:20:11;101492.22;;;10.60;100.00
56402;BME280;42299;35.160;26.100;2023-12-20T02:25:35;101486.84;;;10.57;100.00
56402;BME280;42299;35.160;26.100;2023-12-20T02:30:58;101499.41;;;10.66;100.00
56402;BME280;42299;35.160;26.100;2023-12-20T02:36:20;101497.03;;;10.75;100.00
56402;BME280;42299;35.160;26.100;2023-12-20T02:41:44;101507.91;;;10.87;100.00
56402;BME280;42299;35.160;26.100;2023-12-20T02:47:07;101502.31;;;10.76;100.00
56402;BME280;42299;35.160;26.100;2023-12-20T02:52:30;101491.22;;;10.55;100.00
56402;BME280;42299;35.160;26.100;2023-12-20T02:57:54;101495.44;;;10.50;100.00
56402;BME280;42299;35.160;26.100;2023-12-20T03:03:17;101489.75;;;10.35;100.00
56402;BME280;42299;35.160;26.100;2023-12-20T03:08:40;101488.44;;;10.19;100.00
56402;BME280;42299;35.160;26.100;2023-12-20T03:14:04;101489.97;;;10.13;100.00
56402;BME280;42299;35.160;26.100;2023-12-20T03:19:26;101486.53;;;10.15;100.00
56402;BME280;42299;35.160;26.100;2023-12-20T03:24:50;101487.84;;;10.29;100.00
56402;BME280;42299;35.160;26.100;2023-12-20T03:30:14;101486.22;;;10.34;100.00
56402;BME280;42299;35.160;26.100;2023-12-20T03:35:36;101481.13;;;10.41;100.00
56402;BME280;42299;35.160;26.100;2023-12-20T03:40:59;101486.31;;;10.69;100.00
56402;BME280;42299;35.160;26.100;2023-12-20T03:46:23;101490.84;;;10.74;100.00
56402;BME280;42299;35.160;26.100;2023-12-20T03:51:45;101497.50;;;10.93;100.00
56402;BME280;42299;35.160;26.100;2023-12-20T03:57:07;101503.03;;;11.02;100.00
56402;BME280;42299;35.160;26.100;2023-12-20T04:02:32;101494.97;;;10.98;100.00
56402;BME280;42299;35.160;26.100;2023-12-20T04:07:54;101497.94;;;10.77;100.00
56402;BME280;42299;35.160;26.100;2023-12-20T04:13:17;101508.00;;;10.59;100.00
56402;BME280;42299;35.160;26.100;2023-12-20T04:18:43;101500.59;;;10.46;100.00
56402;BME280;42299;35.160;26.100;2023-12-20T04:24:06;101504.75;;;10.36;100.00
56402;BME280;42299;35.160;26.100;2023-12-20T04:29:29;101508.19;;;10.33;100.00
56402;BME280;42299;35.160;26.100;2023-12-20T04:34:52;101498.81;;;10.45;100.00
56402;BME280;42299;35.160;26.100;2023-12-20T04:40:15;101493.56;;;10.77;100.00
56402;BME280;42299;35.160;26.100;2023-12-20T04:45:37;101498.06;;;11.14;100.00
56402;BME280;42299;35.160;26.100;2023-12-20T04:51:02;101502.84;;;11.31;100.00
56402;BME280;42299;35.160;26.100;2023-12-20T04:56:25;101503.00;;;11.37;100.00
56402;BME280;42299;35.160;26.100;2023-12-20T05:01:47;101517.25;;;11.42;100.00
56402;BME280;42299;35.160;26.100;2023-12-20T05:07:11;101512.88;;;11.44;100.00
56402;BME280;42299;35.160;26.100;2023-12-20T05:12:34;101513.63;;;11.38;100.00
56402;BME280;42299;35.160;26.100;2023-12-20T05:17:56;101513.88;;;11.49;100.00
56402;BME280;42299;35.160;26.100;2023-12-20T05:23:20;101513.06;;;11.51;100.00
56402;BME280;42299;35.160;26.100;2023-12-20T05:28:43;101512.72;;;11.38;100.00
56402;BME280;42299;35.160;26.100;2023-12-20T05:34:05;101522.28;;;11.33;100.00
56402;BME280;42299;35.160;26.100;2023-12-20T05:39:30;101517.41;;;11.13;100.00
56402;BME280;42299;35.160;26.100;2023-12-20T05:44:53;101519.41;;;11.22;100.00
56402;BME280;42299;35.160;26.100;2023-12-20T05:50:15;101524.19;;;11.02;100.00
56402;BME280;42299;35.160;26.100;2023-12-20T05:55:41;101517.25;;;11.07;100.00
56402;BME280;42299;35.160;26.100;2023-12-20T06:01:04;101512.97;;;11.12;100.00
56402;BME280;42299;35.160;26.100;2023-12-20T06:06:29;101514.06;;;11.21;100.00
56402;BME280;42299;35.160;26.100;2023-12-20T06:11:53;101514.75;;;11.13;100.00
56402;BME280;42299;35.160;26.100;2023-12-20T06:17:16;101526.09;;;11.44;100.00
56402;BME280;42299;35.160;26.100;2023-12-20T06:22:38;101521.44;;;14.04;100.00
56402;BME280;42299;35.160;26.100;2023-12-20T06:28:02;101518.44;;;17.09;100.00
56402;BME280;42299;35.160;26.100;2023-12-20T06:33:25;101509.94;;;19.02;100.00
56402;BME280;42299;35.160;26.100;2023-12-20T06:38:48;101518.47;;;20.36;100.00
56402;BME280;42299;35.160;26.100;2023-12-20T06:44:21;101509.19;;;21.76;99.32
56402;BME280;42299;35.160;26.100;2023-12-20T06:49:44;101499.44;;;22.59;91.46
56402;BME280;42299;35.160;26.100;2023-12-20T06:55:10;101497.56;;;23.03;89.09
56402;BME280;42299;35.160;26.100;2023-12-20T07:00:34;101488.75;;;23.67;85.19
56402;BME280;42299;35.160;26.100;2023-12-20T07:05:58;101489.63;;;24.62;75.76
56402;BME280;42299;35.160;26.100;2023-12-20T07:11:24;101495.97;;;25.45;69.38
56402;BME280;42299;35.160;26.100;2023-12-20T07:16:50;101499.53;;;25.47;68.46
56402;BME280;42299;35.160;26.100;2023-12-20T07:22:15;101489.91;;;25.38;71.01
56402;BME280;42299;35.160;26.100;2023-12-20T07:27:38;101493.47;;;26.14;66.89
56402;BME280;42299;35.160;26.100;2023-12-20T07:33:03;101483.47;;;28.14;52.43
56402;BME280;42299;35.160;26.100;2023-12-20T07:38:25;101488.91;;;29.26;47.01
56402;BME280;42299;35.160;26.100;2023-12-20T07:43:49;101491.28;;;29.68;44.75
56402;BME280;42299;35.160;26.100;2023-12-20T07:49:16;101502.91;;;30.06;42.29
56402;BME280;42299;35.160;26.100;2023-12-20T07:54:39;101485.84;;;29.15;43.27
56402;BME280;42299;35.160;26.100;2023-12-20T08:00:07;101483.19;;;30.99;39.90
56402;BME280;42299;35.160;26.100;2023-12-20T08:05:31;101486.19;;;31.71;37.55
56402;BME280;42299;35.160;26.100;2023-12-20T08:10:54;101475.22;;;30.47;39.42
56402;BME280;42299;35.160;26.100;2023-12-20T08:16:18;101482.41;;;30.81;38.01
56402;BME280;42299;35.160;26.100;2023-12-20T08:21:42;101478.00;;;29.80;38.42
56402;BME280;42299;35.160;26.100;2023-12-20T08:27:08;101468.06;;;29.79;38.18
56402;BME280;42299;35.160;26.100;2023-12-20T08:32:31;101459.91;;;27.74;36.92
56402;BME280;42299;35.160;26.100;2023-12-20T08:37:57;101448.19;;;27.73;37.15
56402;BME280;42299;35.160;26.100;2023-12-20T08:43:23;101439.16;;;28.12;34.47
56402;BME280;42299;35.160;26.100;2023-12-20T08:48:48;101442.72;;;28.14;35.47
56402;BME280;42299;35.160;26.100;2023-12-20T08:54:12;101437.84;;;28.41;34.14
56402;BME280;42299;35.160;26.100;2023-12-20T08:59:36;101428.56;;;27.25;34.91
56402;BME280;42299;35.160;26.100;2023-12-20T09:04:59;101429.97;;;28.53;33.83
56402;BME280;42299;35.160;26.100;2023-12-20T09:10:25;101398.63;;;27.48;33.40
56402;BME280;42299;35.160;26.100;2023-12-20T09:15:47;101411.44;;;27.45;33.81
56402;BME280;42299;35.160;26.100;2023-12-20T09:21:10;101397.91;;;27.03;34.73
56402;BME280;42299;35.160;26.100;2023-12-20T09:26:34;101385.44;;;27.19;34.08
56402;BME280;42299;35.160;26.100;2023-12-20T09:32:01;101374.88;;;27.13;34.93
56402;BME280;42299;35.160;26.100;2023-12-20T09:37:26;101369.31;;;26.95;34.36
56402;BME280;42299;35.160;26.100;2023-12-20T09:42:56;101374.31;;;23.77;38.57
56402;BME280;42299;35.160;26.100;2023-12-20T09:48:20;101375.56;;;25.84;36.64
56402;BME280;42299;35.160;26.100;2023-12-20T09:53:43;101384.38;;;24.33;38.54
56402;BME280;42299;35.160;26.100;2023-12-20T09:59:11;101367.81;;;24.43;38.88
56402;BME280;42299;35.160;26.100;2023-12-20T10:04:36;101357.81;;;27.11;35.75
56402;BME280;42299;35.160;26.100;2023-12-20T10:09:59;101342.69;;;27.66;33.20
56402;BME280;42299;35.160;26.100;2023-12-20T10:15:23;101345.47;;;24.94;37.57
56402;BME280;42299;35.160;26.100;2023-12-20T10:20:45;101322.19;;;23.77;38.84
56402;BME280;42299;35.160;26.100;2023-12-20T10:26:08;101325.09;;;26.51;35.87
56402;BME280;42299;35.160;26.100;2023-12-20T10:31:33;101302.22;;;27.99;33.24
56402;BME280;42299;35.160;26.100;2023-12-20T10:36:56;101297.59;;;27.43;33.77
56402;BME280;42299;35.160;26.100;2023-12-20T10:42:20;101286.06;;;27.58;33.03
56402;BME280;42299;35.160;26.100;2023-12-20T10:47:46;101278.97;;;27.35;33.46
56402;BME280;42299;35.160;26.100;2023-12-20T10:53:09;101265.19;;;26.37;34.80
56402;BME280;42299;35.160;26.100;2023-12-20T10:58:33;101268.41;;;26.67;34.46
56402;BME280;42299;35.160;26.100;2023-12-20T11:04:01;101254.50;;;25.89;34.72
56402;BME280;42299;35.160;26.100;2023-12-20T11:09:31;101253.72;;;26.73;34.39
56402;BME280;42299;35.160;26.100;2023-12-20T11:14:56;101245.94;;;28.21;32.46
56402;BME280;42299;35.160;26.100;2023-12-20T11:20:24;101235.09;;;25.31;35.40
56402;BME280;42299;35.160;26.100;2023-12-20T11:25:47;101226.25;;;24.26;37.96
56402;BME280;42299;35.160;26.100;2023-12-20T11:31:13;101222.91;;;23.62;39.07
56402;BME280;42299;35.160;26.100;2023-12-20T11:36:39;101224.41;;;23.10;39.83
56402;BME280;42299;35.160;26.100;2023-12-20T11:42:04;101202.69;;;23.16;40.27
56402;BME280;42299;35.160;26.100;2023-12-20T11:47:29;101198.09;;;23.78;39.41
56402;BME280;42299;35.160;26.100;2023-12-20T11:53:08;101171.28;;;23.44;40.51
56402;BME280;42299;35.160;26.100;2023-12-20T11:58:51;101157.06;;;23.10;41.34
56402;BME280;42299;35.160;26.100;2023-12-20T12:04:14;101152.19;;;23.23;40.95
56402;BME280;42299;35.160;26.100;2023-12-20T12:09:39;101133.94;;;23.62;40.17
56402;BME280;42299;35.160;26.100;2023-12-20T12:15:04;101120.97;;;23.43;39.95
56402;BME280;42299;35.160;26.100;2023-12-20T12:20:27;101126.69;;;23.90;39.34
56402;BME280;42299;35.160;26.100;2023-12-20T12:25:54;101113.63;;;24.04;39.16
56402;BME280;42299;35.160;26.100;2023-12-20T12:31:17;101098.09;;;23.58;39.24
56402;BME280;42299;35.160;26.100;2023-12-20T12:36:40;101102.69;;;22.65;41.12
56402;BME280;42299;35.160;26.100;2023-12-20T12:42:04;101095.75;;;21.90;43.13
56402;BME280;42299;35.160;26.100;2023-12-20T12:47:27;101090.50;;;21.50;44.71
56402;BME280;42299;35.160;26.100;2023-12-20T12:52:49;101084.72;;;21.28;45.99
56402;BME280;42299;35.160;26.100;2023-12-20T12:58:13;101084.19;;;21.13;46.85
56402;BME280;42299;35.160;26.100;2023-12-20T13:03:36;101075.41;;;21.04;46.21
56402;BME280;42299;35.160;26.100;2023-12-20T13:08:59;101081.84;;;20.96;46.88
56402;BME280;42299;35.160;26.100;2023-12-20T13:14:23;101062.44;;;20.85;47.90
56402;BME280;42299;35.160;26.100;2023-12-20T13:19:46;101064.13;;;20.89;48.05
56402;BME280;42299;35.160;26.100;2023-12-20T13:25:08;101043.81;;;20.77;47.84
56402;BME280;42299;35.160;26.100;2023-12-20T13:30:33;101040.03;;;20.44;51.80
56402;BME280;42299;35.160;26.100;2023-12-20T13:35:55;101045.09;;;19.64;72.56
56402;BME280;42299;35.160;26.100;2023-12-20T13:41:19;101049.19;;;19.30;83.12
56402;BME280;42299;35.160;26.100;2023-12-20T13:46:43;101049.44;;;19.15;87.19
56402;BME280;42299;35.160;26.100;2023-12-20T13:52:07;101032.59;;;19.08;89.37
56402;BME280;42299;35.160;26.100;2023-12-20T13:57:29;101027.28;;;19.03;90.34
56402;BME280;42299;35.160;26.100;2023-12-20T14:02:54;101033.69;;;18.93;92.99
56402;BME280;42299;35.160;26.100;2023-12-20T14:08:17;101022.28;;;18.79;93.94
56402;BME280;42299;35.160;26.100;2023-12-20T14:13:40;101014.53;;;18.58;95.93
56402;BME280;42299;35.160;26.100;2023-12-20T14:19:06;101024.56;;;18.39;98.88
56402;BME280;42299;35.160;26.100;2023-12-20T14:24:30;101030.06;;;18.27;99.08
56402;BME280;42299;35.160;26.100;2023-12-20T14:29:53;101023.00;;;18.23;98.58
56402;BME280;42299;35.160;26.100;2023-12-20T14:35:19;101011.50;;;18.15;99.46
56402;BME280;42299;35.160;26.100;2023-12-20T14:40:43;100998.13;;;18.16;97.47
56402;BME280;42299;35.160;26.100;2023-12-20T14:46:06;101001.81;;;18.05;97.21
56402;BME280;42299;35.160;26.100;2023-12-20T14:51:30;101017.13;;;17.86;99.40
56402;BME280;42299;35.160;26.100;2023-12-20T14:56:53;101041.22;;;17.81;98.60
56402;BME280;42299;35.160;26.100;2023-12-20T15:02:18;101012.53;;;18.00;97.38
56402;BME280;42299;35.160;26.100;2023-12-20T15:07:42;100996.50;;;18.05;97.56
56402;BME280;42299;35.160;26.100;2023-12-20T15:13:06;100981.28;;;18.10;97.02
56402;BME280;42299;35.160;26.100;2023-12-20T15:18:30;100970.59;;;18.11;95.91
56402;BME280;42299;35.160;26.100;2023-12-20T15:23:54;100965.19;;;18.13;95.45
56402;BME280;42299;35.160;26.100;2023-12-20T15:29:27;100977.59;;;18.18;96.02
56402;BME280;42299;35.160;26.100;2023-12-20T15:34:50;100972.22;;;18.21;96.16
56402;BME280;42299;35.160;26.100;2023-12-20T15:40:16;100981.94;;;18.27;95.77
56402;BME280;42299;35.160;26.100;2023-12-20T15:45:39;100987.03;;;18.47;93.12
56402;BME280;42299;35.160;26.100;2023-12-20T15:51:04;100984.19;;;18.63;91.28
56402;BME280;42299;35.160;26.100;2023-12-20T15:56:29;100992.16;;;18.65;91.91
56402;BME280;42299;35.160;26.100;2023-12-20T16:01:52;100991.50;;;18.48;93.28
56402;BME280;42299;35.160;26.100;2023-12-20T16:07:16;100990.34;;;18.70;91.94
56402;BME280;42299;35.160;26.100;2023-12-20T16:12:42;101008.09;;;18.74;90.65
56402;BME280;42299;35.160;26.100;2023-12-20T16:18:05;101009.06;;;18.68;91.55
56402;BME280;42299;35.160;26.100;2023-12-20T16:23:30;101008.09;;;18.74;92.12
56402;BME280;42299;35.160;26.100;2023-12-20T16:28:55;101005.44;;;18.71;92.67
56402;BME280;42299;35.160;26.100;2023-12-20T16:34:17;101012.56;;;18.72;93.79
56402;BME280;42299;35.160;26.100;2023-12-20T16:39:40;101010.13;;;18.52;95.92
56402;BME280;42299;35.160;26.100;2023-12-20T16:45:06;101003.91;;;18.52;97.16
56402;BME280;42299;35.160;26.100;2023-12-20T16:50:28;100979.22;;;18.31;99.34
56402;BME280;42299;35.160;26.100;2023-12-20T16:55:51;100979.09;;;18.42;99.13
56402;BME280;42299;35.160;26.100;2023-12-20T17:01:15;100980.97;;;18.32;100.00
56402;BME280;42299;35.160;26.100;2023-12-20T17:06:37;100975.63;;;18.34;100.00
56402;BME280;42299;35.160;26.100;2023-12-20T17:12:00;100978.19;;;18.43;100.00
56402;BME280;42299;35.160;26.100;2023-12-20T17:17:28;100987.97;;;18.44;100.00
56402;BME280;42299;35.160;26.100;2023-12-20T17:22:51;100968.56;;;18.30;100.00
56402;BME280;42299;35.160;26.100;2023-12-20T17:28:20;100972.06;;;18.32;100.00
56402;BME280;42299;35.160;26.100;2023-12-20T17:33:45;100965.63;;;18.48;100.00
56402;BME280;42299;35.160;26.100;2023-12-20T17:39:08;100948.88;;;18.37;100.00
56402;BME280;42299;35.160;26.100;2023-12-20T17:44:30;100948.06;;;18.30;100.00
56402;BME280;42299;35.160;26.100;2023-12-20T17:49:55;100947.91;;;18.41;100.00
56402;BME280;42299;35.160;26.100;2023-12-20T17:55:22;100957.66;;;18.45;96.50
56402;BME280;42299;35.160;26.100;2023-12-20T18:00:47;100953.97;;;18.57;93.90
56402;BME280;42299;35.160;26.100;2023-12-20T18:06:15;100941.59;;;18.47;92.09
56402;BME280;42299;35.160;26.100;2023-12-20T18:11:38;100931.72;;;18.52;93.92
56402;BME280;42299;35.160;26.100;2023-12-20T18:17:01;100930.16;;;18.37;96.38
56402;BME280;42299;35.160;26.100;2023-12-20T18:22:25;100933.66;;;18.42;96.93
56402;BME280;42299;35.160;26.100;2023-12-20T18:27:48;100937.22;;;18.40;100.00
56402;BME280;42299;35.160;26.100;2023-12-20T18:33:10;100947.97;;;18.37;100.00
56402;BME280;42299;35.160;26.100;2023-12-20T18:38:35;100935.72;;;18.19;100.00
56402;BME280;42299;35.160;26.100;2023-12-20T18:44:01;100956.53;;;17.92;100.00
56402;BME280;42299;35.160;26.100;2023-12-20T18:49:41;100968.19;;;17.85;100.00
56402;BME280;42299;35.160;26.100;2023-12-20T18:55:25;100948.50;;;17.94;100.00
56402;BME280;42299;35.160;26.100;2023-12-20T19:00:47;100951.09;;;17.99;100.00
56402;BME280;42299;35.160;26.100;2023-12-20T19:06:11;100954.44;;;18.19;100.00
56402;BME280;42299;35.160;26.100;2023-12-20T19:11:39;100946.38;;;18.22;100.00
56402;BME280;42299;35.160;26.100;2023-12-20T19:17:02;100942.97;;;18.11;100.00
56402;BME280;42299;35.160;26.100;2023-12-20T19:22:25;100934.03;;;18.12;100.00
56402;BME280;42299;35.160;26.100;2023-12-20T19:27:55;100931.41;;;18.10;100.00
56402;BME280;42299;35.160;26.100;2023-12-20T19:33:18;100924.22;;;18.14;100.00
56402;BME280;42299;35.160;26.100;2023-12-20T19:38:42;100913.69;;;18.00;100.00
56402;BME280;42299;35.160;26.100;2023-12-20T19:44:06;100920.66;;;18.13;100.00
56402;BME280;42299;35.160;26.100;2023-12-20T19:49:29;100910.03;;;18.10;100.00
56402;BME280;42299;35.160;26.100;2023-12-20T19:54:51;100887.88;;;18.01;100.00
56402;BME280;42299;35.160;26.100;2023-12-20T20:00:15;100888.84;;;17.95;100.00
56402;BME280;42299;35.160;26.100;2023-12-20T20:05:38;100880.81;;;17.97;100.00
56402;BME280;42299;35.160;26.100;2023-12-20T20:11:00;100860.28;;;17.99;100.00
56402;BME280;42299;35.160;26.100;2023-12-20T20:16:27;100850.53;;;17.96;100.00
56402;BME280;42299;35.160;26.100;2023-12-20T20:21:50;100843.34;;;18.00;100.00
56402;BME280;42299;35.160;26.100;2023-12-20T20:27:12;100843.34;;;18.01;100.00
56402;BME280;42299;35.160;26.100;2023-12-20T20:32:38;100835.41;;;17.97;100.00
56402;BME280;42299;35.160;26.100;2023-12-20T20:38:02;100825.00;;;17.72;100.00
56402;BME280;42299;35.160;26.100;2023-12-20T20:43:25;100834.63;;;17.87;100.00
56402;BME280;42299;35.160;26.100;2023-12-20T20:48:49;100826.50;;;17.95;100.00
56402;BME280;42299;35.160;26.100;2023-12-20T20:54:12;100833.53;;;18.03;100.00
56402;BME280;42299;35.160;26.100;2023-12-20T20:59:35;100811.66;;;17.72;100.00
56402;BME280;42299;35.160;26.100;2023-12-20T21:05:00;100824.75;;;17.14;100.00
56402;BME280;42299;35.160;26.100;2023-12-20T21:10:25;100818.19;;;16.60;100.00
56402;BME280;42299;35.160;26.100;2023-12-20T21:15:47;100811.34;;;16.19;100.00
56402;BME280;42299;35.160;26.100;2023-12-20T21:21:11;100804.44;;;15.88;100.00
56402;BME280;42299;35.160;26.100;2023-12-20T21:26:34;100795.47;;;16.00;100.00
56402;BME280;42299;35.160;26.100;2023-12-20T21:31:56;100796.28;;;16.11;100.00
56402;BME280;42299;35.160;26.100;2023-12-20T21:37:20;100792.69;;;16.21;100.00
56402;BME280;42299;35.160;26.100;2023-12-20T21:42:43;100786.47;;;16.17;100.00
56402;BME280;42299;35.160;26.100;2023-12-20T21:48:07;100763.34;;;16.25;100.00
56402;BME280;42299;35.160;26.100;2023-12-20T21:53:31;100752.69;;;16.25;100.00
56402;BME280;42299;35.160;26.100;2023-12-20T21:58:54;100730.50;;;16.25;100.00
56402;BME280;42299;35.160;26.100;2023-12-20T22:04:17;100724.53;;;15.92;100.00
56402;BME280;42299;35.160;26.100;2023-12-20T22:09:41;100714.84;;;15.78;100.00
56402;BME280;42299;35.160;26.100;2023-12-20T22:15:05;100693.66;;;15.67;100.00
56402;BME280;42299;35.160;26.100;2023-12-20T22:20:30;100678.59;;;15.62;100.00
56402;BME280;42299;35.160;26.100;2023-12-20T22:25:56;100659.97;;;15.57;100.00
56402;BME280;42299;35.160;26.100;2023-12-20T22:31:19;100653.81;;;15.53;100.00
56402;BME280;42299;35.160;26.100;2023-12-20T22:36:41;100618.34;;;15.54;100.00
56402;BME280;42299;35.160;26.100;2023-12-20T22:42:07;100623.41;;;15.82;100.00
56402;BME280;42299;35.160;26.100;2023-12-20T22:47:30;100589.63;;;15.91;100.00
56402;BME280;42299;35.160;26.100;2023-12-20T22:52:53;100561.25;;;15.90;100.00
56402;BME280;42299;35.160;26.100;2023-12-20T22:58:17;100571.75;;;16.07;100.00
56402;BME280;42299;35.160;26.100;2023-12-20T23:03:42;100545.94;;;16.12;100.00
56402;BME280;42299;35.160;26.100;2023-12-20T23:09:04;100527.31;;;16.12;100.00
56402;BME280;42299;35.160;26.100;2023-12-20T23:14:30;100548.53;;;16.17;100.00
56402;BME280;42299;35.160;26.100;2023-12-20T23:19:52;100558.00;;;16.47;100.00
56402;BME280;42299;35.160;26.100;2023-12-20T23:25:18;100554.38;;;16.51;100.00
56402;BME280;42299;35.160;26.100;2023-12-20T23:30:42;100549.84;;;16.59;100.00
56402;BME280;42299;35.160;26.100;2023-12-20T23:36:06;100525.75;;;16.68;100.00
56402;BME280;42299;35.160;26.100;2023-12-20T23:41:29;100524.94;;;16.64;100.00
56402;BME280;42299;35.160;26.100;2023-12-20T23:46:54;100536.38;;;16.72;100.00
56402;BME280;42299;35.160;26.100;2023-12-20T23:52:16;100536.19;;;16.86;100.00
56402;BME280;42299;35.160;26.100;2023-12-20T23:57:39;100527.75;;;17.17;100.00
